createdAt,value
2019-04-14T00:02:09.620Z,17.83
2019-04-14T00:04:44.437Z,18.13
2019-04-14T00:07:14.472Z,17.17
2019-04-14T00:09:45.259Z,17.93
2019-04-14T00:12:16.414Z,18.17
2019-04-14T00:14:46.914Z,18.47
2019-04-14T00:17:17.286Z,17.73
2019-04-14T00:19:47.793Z,16.87
2019-04-14T00:22:18.395Z,18.30
2019-04-14T00:24:48.915Z,18.97
2019-04-14T00:27:19.304Z,17.73
2019-04-14T00:29:50.277Z,17.97
2019-04-14T00:32:20.517Z,18.27
2019-04-14T00:35:08.136Z,17.97
2019-04-14T00:38:13.168Z,18.03
2019-04-14T00:40:53.904Z,18.10
2019-04-14T00:43:46.039Z,18.33
2019-04-14T00:46:19.603Z,17.93
2019-04-14T00:48:49.764Z,18.70
2019-04-14T00:51:19.947Z,19.23
2019-04-14T00:53:49.558Z,18.40
2019-04-14T00:56:19.473Z,19.03
2019-04-14T00:58:49.694Z,18.70
2019-04-14T01:01:19.745Z,18.87
2019-04-14T01:03:50.515Z,19.30
2019-04-14T01:06:20.795Z,19.30
2019-04-14T01:08:51.164Z,18.53
2019-04-14T01:11:20.918Z,19.13
2019-04-14T01:14:02.085Z,18.40
2019-04-14T01:16:31.959Z,20.07
2019-04-14T01:19:02.648Z,20.07
2019-04-14T01:21:32.781Z,18.80
2019-04-14T01:24:03.215Z,20.00
2019-04-14T01:26:33.229Z,20.30
2019-04-14T01:29:03.667Z,19.67
2019-04-14T01:31:33.870Z,19.47
2019-04-14T01:34:04.126Z,19.00
2019-04-14T01:36:34.439Z,19.73
2019-04-14T01:39:06.848Z,19.17
2019-04-14T01:41:56.424Z,19.73
2019-04-14T01:44:26.494Z,19.80
2019-04-14T01:46:56.608Z,19.70
2019-04-14T01:49:26.902Z,20.37
2019-04-14T01:52:25.289Z,19.43
2019-04-14T01:55:17.767Z,21.17
2019-04-14T01:58:05.379Z,20.13
2019-04-14T02:01:04.124Z,19.57
2019-04-14T02:03:34.493Z,19.90
2019-04-14T02:06:04.814Z,20.60
2019-04-14T02:08:35.167Z,20.90
2019-04-14T02:11:05.279Z,21.13
2019-04-14T02:13:35.423Z,20.73
2019-04-14T02:16:16.462Z,21.60
2019-04-14T02:18:36.325Z,20.83
2019-04-14T02:21:06.447Z,20.70
2019-04-14T02:23:36.589Z,20.23
2019-04-14T02:26:06.955Z,20.93
2019-04-14T02:28:37.569Z,20.73
2019-04-14T02:31:17.585Z,21.17
2019-04-14T02:34:02.299Z,20.93
2019-04-14T02:36:40.228Z,22.30
2019-04-14T02:44:16.161Z,20.30
2019-04-14T02:46:45.846Z,20.80
2019-04-14T02:49:13.745Z,20.67
2019-04-14T02:51:42.378Z,21.43
2019-04-14T02:54:23.377Z,21.07
2019-04-14T02:56:45.489Z,20.57
2019-04-14T02:59:11.759Z,21.73
2019-04-14T03:02:23.233Z,21.60
2019-04-14T03:07:16.623Z,21.27
2019-04-14T03:12:09.770Z,20.63
2019-04-14T03:14:57.081Z,21.73
2019-04-14T03:17:44.388Z,21.60
2019-04-14T03:20:27.296Z,21.97
2019-04-14T03:22:55.756Z,20.87
2019-04-14T03:25:33.598Z,21.70
2019-04-14T03:31:25.961Z,21.30
2019-04-14T03:34:07.656Z,22.50
2019-04-14T03:43:38.863Z,22.27
2019-04-14T03:46:17.421Z,22.17
2019-04-14T03:51:16.767Z,21.60
2019-04-14T03:53:45.791Z,22.70
2019-04-14T03:56:29.175Z,22.73
2019-04-14T03:58:59.808Z,21.93
2019-04-14T04:01:30.198Z,22.57
2019-04-14T04:04:00.685Z,22.03
2019-04-14T04:06:31.264Z,21.77
2019-04-14T04:09:01.908Z,22.97
2019-04-14T04:11:32.279Z,22.97
2019-04-14T04:14:03.058Z,22.87
2019-04-14T04:16:50.774Z,22.00
2019-04-14T04:19:33.888Z,22.60
2019-04-14T04:22:37.452Z,21.50
2019-04-14T04:25:33.197Z,22.07
2019-04-14T04:28:34.197Z,23.43
2019-04-14T04:31:32.787Z,23.53
2019-04-14T04:34:25.078Z,22.33
2019-04-14T04:37:06.061Z,22.10
2019-04-14T04:39:39.686Z,23.37
2019-04-14T04:42:09.568Z,23.30
2019-04-14T04:44:39.945Z,23.30
2019-04-14T04:47:10.088Z,23.40
2019-04-14T04:49:40.468Z,23.23
2019-04-14T04:52:12.695Z,22.63
2019-04-14T04:54:41.268Z,23.33
2019-04-14T04:57:13.188Z,22.67
2019-04-14T04:59:43.061Z,23.30
2019-04-14T05:02:13.434Z,24.07
2019-04-14T05:04:43.853Z,23.40
2019-04-14T05:07:14.507Z,22.90
2019-04-14T05:10:02.679Z,24.17
2019-04-14T05:12:58.660Z,22.70
2019-04-14T05:15:36.642Z,22.23
2019-04-14T05:18:07.129Z,21.87
2019-04-14T05:20:37.783Z,22.37
2019-04-14T05:23:08.051Z,23.70
2019-04-14T05:25:56.205Z,22.80
2019-04-14T05:28:26.719Z,22.67
2019-04-14T05:30:56.865Z,22.97
2019-04-14T05:33:27.199Z,23.00
2019-04-14T05:35:57.447Z,22.80
2019-04-14T05:38:30.308Z,22.67
2019-04-14T05:40:58.440Z,23.37
2019-04-14T05:43:38.769Z,21.90
2019-04-14T05:46:01.207Z,23.47
2019-04-14T05:48:31.522Z,22.93
2019-04-14T05:51:02.004Z,22.97
2019-04-14T05:53:32.582Z,23.80
2019-04-14T05:56:03.582Z,23.07
2019-04-14T05:58:33.964Z,22.90
2019-04-14T06:01:04.777Z,22.23
2019-04-14T06:03:53.944Z,20.80
2019-04-14T06:06:23.455Z,22.50
2019-04-14T06:08:53.095Z,23.00
2019-04-14T06:11:22.617Z,22.07
2019-04-14T06:13:52.309Z,22.33
2019-04-14T06:16:22.330Z,21.37
2019-04-14T06:18:51.995Z,21.97
2019-04-14T06:21:21.555Z,22.70
2019-04-14T06:23:51.216Z,21.70
2019-04-14T06:26:21.303Z,21.47
2019-04-14T06:28:52.139Z,21.90
2019-04-14T06:31:38.682Z,22.07
2019-04-14T06:34:16.191Z,22.40
2019-04-14T06:36:58.176Z,21.63
2019-04-14T06:39:30.637Z,21.97
2019-04-14T06:42:00.739Z,21.77
2019-04-14T06:44:36.961Z,21.90
2019-04-14T06:47:06.602Z,22.33
2019-04-14T06:49:48.189Z,22.17
2019-04-14T06:52:07.641Z,20.97
2019-04-14T06:54:37.407Z,21.83
2019-04-14T06:57:07.099Z,21.63
2019-04-14T06:59:37.126Z,22.47
2019-04-14T07:02:08.647Z,21.40
2019-04-14T07:04:38.266Z,21.80
2019-04-14T07:07:07.880Z,21.13
2019-04-14T07:09:37.460Z,21.37
2019-04-14T07:12:07.104Z,21.10
2019-04-14T07:14:36.684Z,21.60
2019-04-14T07:17:06.336Z,21.87
2019-04-14T07:19:35.815Z,21.80
2019-04-14T07:22:05.676Z,21.83
2019-04-14T07:24:35.179Z,21.90
2019-04-14T07:27:05.661Z,21.40
2019-04-14T07:30:13.112Z,22.67
2019-04-14T07:33:02.082Z,21.57
2019-04-14T07:35:54.190Z,22.10
2019-04-14T07:38:38.793Z,21.73
2019-04-14T07:41:16.961Z,22.27
2019-04-14T07:44:03.969Z,21.60
2019-04-14T07:46:43.004Z,20.80
2019-04-14T07:49:23.844Z,22.57
2019-04-14T07:52:18.566Z,21.33
2019-04-14T07:55:04.936Z,23.17
2019-04-14T07:57:52.226Z,22.67
2019-04-14T08:00:32.035Z,21.83
2019-04-14T08:03:08.222Z,23.00
2019-04-14T08:05:39.382Z,22.43
2019-04-14T08:08:09.152Z,23.27
2019-04-14T08:10:39.200Z,22.60
2019-04-14T08:13:08.995Z,22.13
2019-04-14T08:15:38.598Z,23.10
2019-04-14T08:18:08.236Z,22.70
2019-04-14T08:20:37.788Z,23.10
2019-04-14T08:23:07.359Z,22.83
2019-04-14T08:25:37.221Z,23.37
2019-04-14T08:28:07.205Z,23.27
2019-04-14T08:30:36.934Z,22.77
2019-04-14T08:33:06.641Z,23.53
2019-04-14T08:35:36.177Z,22.07
2019-04-14T08:38:06.062Z,22.50
2019-04-14T08:40:35.681Z,23.00
2019-04-14T08:43:23.079Z,22.23
2019-04-14T08:46:14.826Z,22.40
2019-04-14T08:48:50.213Z,22.93
2019-04-14T08:51:47.665Z,22.70
2019-04-14T08:54:29.024Z,22.73
2019-04-14T08:57:17.627Z,22.20
2019-04-14T08:59:56.976Z,23.20
2019-04-14T09:02:41.215Z,24.10
2019-04-14T09:05:28.606Z,21.37
2019-04-14T09:08:19.821Z,21.57
2019-04-14T09:10:52.784Z,22.70
2019-04-14T09:13:22.289Z,22.43
2019-04-14T09:15:51.903Z,22.90
2019-04-14T09:18:21.399Z,22.73
2019-04-14T09:21:09.993Z,22.50
2019-04-14T09:23:39.695Z,22.83
2019-04-14T09:26:09.379Z,22.80
2019-04-14T09:28:39.016Z,23.87
2019-04-14T09:31:08.777Z,22.17
2019-04-14T09:33:38.253Z,22.53
2019-04-14T09:36:27.733Z,20.70
2019-04-14T09:39:08.827Z,21.87
2019-04-14T09:41:38.519Z,21.13
2019-04-14T09:44:08.188Z,22.60
2019-04-14T09:46:37.948Z,22.57
2019-04-14T09:49:07.591Z,23.27
2019-04-14T09:51:37.251Z,23.70
2019-04-14T09:54:06.949Z,23.73
2019-04-14T09:56:36.647Z,21.53
2019-04-14T09:59:06.177Z,21.00
2019-04-14T10:01:36.481Z,22.77
2019-04-14T10:04:06.375Z,22.80
2019-04-14T10:06:36.137Z,21.37
2019-04-14T10:09:06.347Z,23.07
2019-04-14T10:11:48.074Z,23.20
2019-04-14T10:14:08.101Z,21.37
2019-04-14T10:16:37.587Z,22.90
2019-04-14T10:19:07.581Z,22.90
2019-04-14T10:21:37.324Z,20.87
2019-04-14T10:24:07.325Z,22.27
2019-04-14T10:26:37.519Z,21.47
2019-04-14T10:29:08.084Z,21.17
2019-04-14T10:31:37.693Z,21.63
2019-04-14T10:34:09.920Z,21.23
2019-04-14T10:36:50.506Z,20.43
2019-04-14T10:39:20.130Z,19.83
2019-04-14T10:41:49.959Z,19.80
2019-04-14T10:44:19.624Z,19.57
2019-04-14T10:46:49.324Z,19.63
2019-04-14T10:49:19.414Z,19.40
2019-04-14T10:51:48.916Z,19.57
2019-04-14T10:54:18.624Z,19.07
2019-04-14T10:56:48.574Z,20.47
2019-04-14T10:59:18.738Z,17.00
2019-04-14T11:01:48.302Z,17.67
2019-04-14T11:04:17.908Z,17.20
2019-04-14T11:06:53.070Z,17.10
2019-04-14T11:09:23.998Z,18.20
2019-04-14T11:11:53.548Z,18.70
2019-04-14T11:14:23.094Z,18.23
2019-04-14T11:16:52.733Z,19.93
2019-04-14T11:19:22.272Z,20.27
2019-04-14T11:21:51.857Z,19.93
2019-04-14T11:24:23.986Z,19.13
2019-04-14T11:26:52.947Z,16.87
2019-04-14T11:29:22.484Z,17.27
2019-04-14T11:32:13.778Z,17.50
2019-04-14T11:34:58.586Z,16.20
2019-04-14T11:37:43.721Z,15.50
2019-04-14T11:40:15.897Z,17.23
2019-04-14T11:42:52.186Z,17.63
2019-04-14T11:45:17.360Z,17.73
2019-04-14T11:47:47.156Z,16.77
2019-04-14T11:50:17.400Z,15.60
2019-04-14T11:52:47.090Z,16.10
2019-04-14T11:55:16.653Z,17.70
2019-04-14T11:57:46.400Z,17.83
2019-04-14T12:00:34.058Z,17.80
2019-04-14T12:03:32.438Z,17.67
2019-04-14T12:06:36.571Z,18.00
2019-04-14T12:09:18.666Z,17.60
2019-04-14T12:11:51.671Z,16.90
2019-04-14T12:14:21.238Z,16.37
2019-04-14T12:16:50.798Z,17.33
2019-04-14T12:19:20.319Z,15.30
2019-04-14T12:21:50.777Z,17.03
2019-04-14T12:24:20.338Z,16.60
2019-04-14T12:26:49.933Z,17.03
2019-04-14T12:29:19.803Z,16.87
2019-04-14T12:31:50.955Z,15.97
2019-04-14T12:34:21.092Z,16.87
2019-04-14T12:36:51.113Z,16.97
2019-04-14T12:39:24.566Z,15.20
2019-04-14T12:42:12.538Z,18.37
2019-04-14T12:45:01.030Z,17.57
2019-04-14T12:47:49.611Z,17.47
2019-04-14T12:50:32.359Z,16.70
2019-04-14T12:53:01.941Z,17.80
2019-04-14T12:55:31.559Z,17.37
2019-04-14T12:58:03.363Z,17.33
2019-04-14T13:00:39.979Z,17.03
2019-04-14T13:03:10.279Z,17.17
2019-04-14T13:05:40.659Z,18.23
2019-04-14T13:08:10.275Z,17.03
2019-04-14T13:10:39.925Z,17.50
2019-04-14T13:13:09.596Z,17.80
2019-04-14T13:15:39.204Z,17.97
2019-04-14T13:18:08.799Z,17.97
2019-04-14T13:20:38.375Z,17.03
2019-04-14T13:23:08.120Z,18.07
2019-04-14T13:25:38.005Z,17.17
2019-04-14T13:28:07.840Z,17.27
2019-04-14T13:30:41.152Z,18.20
2019-04-14T13:33:10.850Z,17.23
2019-04-14T13:35:40.494Z,16.83
2019-04-14T13:38:10.252Z,18.80
2019-04-14T13:40:44.723Z,17.60
2019-04-14T13:43:14.651Z,18.37
2019-04-14T13:45:44.287Z,19.57
2019-04-14T13:48:14.431Z,18.63
2019-04-14T13:50:44.167Z,18.20
2019-04-14T13:53:13.817Z,18.70
2019-04-14T13:55:43.445Z,18.20
2019-04-14T13:58:13.473Z,19.50
2019-04-14T14:00:43.033Z,18.50
2019-04-14T14:03:12.651Z,19.37
2019-04-14T14:05:43.841Z,18.53
2019-04-14T14:08:14.328Z,17.40
2019-04-14T14:10:44.065Z,17.77
2019-04-14T14:13:23.327Z,17.90
2019-04-14T14:16:10.708Z,17.70
2019-04-14T14:18:54.948Z,17.27
2019-04-14T14:21:33.471Z,18.60
2019-04-14T14:24:20.779Z,17.53
2019-04-14T14:26:51.255Z,17.43
2019-04-14T14:29:21.316Z,16.17
2019-04-14T14:31:51.752Z,16.20
2019-04-14T14:34:21.494Z,21.23
2019-04-14T14:36:50.948Z,18.83
2019-04-14T14:39:21.268Z,17.80
2019-04-14T14:41:50.806Z,17.50
2019-04-14T14:44:21.768Z,17.33
2019-04-14T14:47:19.047Z,17.07
2019-04-14T14:50:04.570Z,16.27
2019-04-14T14:52:35.012Z,15.10
2019-04-14T14:55:05.388Z,16.97
2019-04-14T14:57:35.006Z,15.50
2019-04-14T15:00:06.012Z,16.10
2019-04-14T15:02:35.895Z,14.60
2019-04-14T15:05:06.054Z,16.37
2019-04-14T15:07:35.820Z,16.57
2019-04-14T15:10:05.616Z,15.43
2019-04-14T15:12:35.159Z,15.60
2019-04-14T15:15:05.060Z,15.80
2019-04-14T15:17:35.355Z,15.97
2019-04-14T15:20:05.563Z,16.30
2019-04-14T15:22:35.155Z,24.27
2019-04-14T15:25:04.756Z,20.60
2019-04-14T15:27:34.276Z,17.03
2019-04-14T15:30:06.032Z,16.20
2019-04-14T15:32:35.850Z,15.93
2019-04-14T15:35:06.105Z,16.37
2019-04-14T15:37:36.337Z,16.70
2019-04-14T15:40:06.836Z,17.17
2019-04-14T15:42:36.391Z,15.93
2019-04-14T15:45:06.807Z,15.60
2019-04-14T15:47:40.002Z,16.53
2019-04-14T15:50:16.168Z,16.87
2019-04-14T15:52:56.924Z,15.70
2019-04-14T15:55:26.764Z,18.67
2019-04-14T15:58:30.382Z,16.80
2019-04-14T16:01:25.210Z,16.13
2019-04-14T16:04:06.013Z,16.23
2019-04-14T16:06:53.689Z,15.97
2019-04-14T16:09:48.309Z,17.00
2019-04-14T16:12:24.187Z,16.90
2019-04-14T16:15:21.635Z,15.77
2019-04-14T16:18:10.179Z,15.90
2019-04-14T16:20:41.764Z,16.83
2019-04-14T16:23:13.219Z,17.40
2019-04-14T16:26:00.531Z,17.13
2019-04-14T16:28:38.789Z,18.17
2019-04-14T16:34:18.711Z,19.17
2019-04-14T16:36:48.602Z,17.60
2019-04-14T16:39:18.717Z,19.17
2019-04-14T16:41:48.535Z,25.37
2019-04-14T16:44:18.483Z,19.90
2019-04-14T16:46:48.599Z,23.60
2019-04-14T16:49:22.444Z,18.37
2019-04-14T16:51:57.035Z,18.77
2019-04-14T16:54:48.519Z,18.40
2019-04-14T16:57:42.909Z,20.67
2019-04-14T17:00:15.607Z,20.90
2019-04-14T17:02:45.464Z,17.50
2019-04-14T17:05:15.843Z,18.67
2019-04-14T17:07:45.629Z,18.03
2019-04-14T17:10:15.285Z,17.87
2019-04-14T17:12:45.079Z,17.50
2019-04-14T17:15:33.673Z,17.60
2019-04-14T17:18:20.881Z,18.53
2019-04-14T17:20:57.053Z,17.43
2019-04-14T17:23:34.854Z,17.33
2019-04-14T17:26:23.614Z,16.97
2019-04-14T17:28:57.602Z,17.10
2019-04-14T17:31:47.026Z,16.70
2019-04-14T17:34:22.494Z,16.93
2019-04-14T17:37:10.958Z,16.63
2019-04-14T17:39:48.174Z,17.07
2019-04-14T17:42:28.005Z,17.00
2019-04-14T17:45:15.150Z,16.63
2019-04-14T17:47:56.784Z,17.67
2019-04-14T17:50:48.362Z,18.43
2019-04-14T17:53:21.228Z,20.27
2019-04-14T17:56:12.820Z,18.47
2019-04-14T17:59:02.220Z,16.40
2019-04-14T18:01:53.666Z,16.67
2019-04-14T18:04:57.820Z,16.03
2019-04-14T18:07:50.328Z,16.07
2019-04-14T18:10:33.628Z,16.13
2019-04-14T18:13:28.436Z,17.00
2019-04-14T18:16:32.269Z,17.23
2019-04-14T18:19:30.397Z,17.73
2019-04-14T18:22:07.634Z,16.53
2019-04-14T18:24:42.566Z,17.07
2019-04-14T18:27:08.638Z,16.83
2019-04-14T18:29:44.035Z,16.80
2019-04-14T18:32:41.424Z,17.37
2019-04-14T18:35:36.643Z,16.83
2019-04-14T18:38:41.721Z,17.40
2019-04-14T18:41:33.201Z,17.47
2019-04-14T18:44:53.282Z,17.23
2019-04-14T18:47:34.010Z,17.53
2019-04-14T18:50:22.604Z,16.67
2019-04-14T18:53:17.177Z,17.53
2019-04-14T18:55:53.784Z,17.57
2019-04-14T18:58:36.856Z,18.10
2019-04-14T19:01:25.414Z,18.20
2019-04-14T19:03:55.146Z,17.97
2019-04-14T19:06:28.271Z,17.87
2019-04-14T19:08:58.571Z,16.57
2019-04-14T19:11:56.231Z,17.83
2019-04-14T19:14:37.285Z,18.07
2019-04-14T19:17:17.186Z,19.70
2019-04-14T19:20:00.816Z,18.47
2019-04-14T19:22:22.482Z,19.40
2019-04-14T19:24:52.165Z,18.63
2019-04-14T19:27:21.919Z,20.63
2019-04-14T19:29:51.711Z,19.63
2019-04-14T19:32:21.625Z,19.17
2019-04-14T19:34:51.153Z,19.23
2019-04-14T19:37:20.851Z,20.07
2019-04-14T19:39:51.853Z,21.97
2019-04-14T19:42:21.395Z,20.87
2019-04-14T19:44:50.980Z,20.47
2019-04-14T19:47:21.678Z,21.00
2019-04-14T19:49:51.387Z,20.80
2019-04-14T19:52:21.090Z,20.00
2019-04-14T19:54:51.079Z,21.20
2019-04-14T19:57:22.576Z,21.37
2019-04-14T19:59:52.208Z,21.17
2019-04-14T20:02:21.775Z,21.23
2019-04-14T20:04:51.462Z,21.53
2019-04-14T20:07:21.435Z,21.70
2019-04-14T20:09:51.554Z,20.93
2019-04-14T20:12:21.239Z,22.60
2019-04-14T20:14:51.115Z,22.13
2019-04-14T20:17:31.464Z,21.67
2019-04-14T20:20:38.069Z,21.97
2019-04-14T20:23:38.821Z,21.67
2019-04-14T20:26:26.494Z,20.17
2019-04-14T20:29:00.985Z,21.67
2019-04-14T20:31:42.426Z,21.97
2019-04-14T20:34:31.105Z,21.17
2019-04-14T20:37:00.596Z,21.57
2019-04-14T20:39:31.303Z,21.70
2019-04-14T20:42:01.496Z,22.03
2019-04-14T20:44:31.466Z,20.10
2019-04-14T20:47:04.071Z,22.13
2019-04-14T20:49:33.653Z,21.80
2019-04-14T20:52:03.455Z,21.87
2019-04-14T20:54:33.377Z,22.20
2019-04-14T20:57:03.155Z,21.90
2019-04-14T20:59:33.010Z,22.40
2019-04-14T21:02:20.551Z,21.67
2019-04-14T21:05:08.998Z,21.70
2019-04-14T21:08:10.533Z,21.30
2019-04-14T21:10:49.572Z,20.70
2019-04-14T21:13:29.865Z,19.77
2019-04-14T21:16:13.186Z,20.80
2019-04-14T21:18:56.068Z,21.03
2019-04-14T21:21:34.839Z,20.43
2019-04-14T21:24:26.500Z,21.17
2019-04-14T21:27:27.478Z,21.43
2019-04-14T21:30:12.388Z,20.57
2019-04-14T21:32:59.344Z,20.83
2019-04-14T21:35:50.849Z,20.63
2019-04-14T21:38:39.360Z,20.70
2019-04-14T21:41:13.878Z,19.60
2019-04-14T21:43:46.745Z,19.97
2019-04-14T21:46:16.237Z,20.93
2019-04-14T21:48:46.022Z,21.97
2019-04-14T21:51:15.662Z,20.70
2019-04-14T21:53:46.847Z,20.40
2019-04-14T21:56:16.898Z,20.57
2019-04-14T21:59:17.720Z,20.83
2019-04-14T22:02:04.870Z,19.93
2019-04-14T22:04:53.450Z,21.20
2019-04-14T22:07:40.697Z,21.90
2019-04-14T22:10:18.726Z,20.70
2019-04-14T22:12:49.152Z,22.13
2019-04-14T22:15:19.238Z,21.50
2019-04-14T22:17:50.996Z,21.87
2019-04-14T22:20:23.179Z,23.47
2019-04-14T22:22:53.838Z,23.40
2019-04-14T22:25:28.988Z,23.10
2019-04-14T22:27:58.665Z,21.87
2019-04-14T22:30:28.568Z,23.67
2019-04-14T22:32:58.380Z,23.00
2019-04-14T22:35:27.850Z,22.77
2019-04-14T22:37:57.416Z,23.87
2019-04-14T22:40:26.963Z,23.80
2019-04-14T22:42:59.192Z,23.40
2019-04-14T22:45:28.914Z,23.13
2019-04-14T22:47:58.436Z,24.20
2019-04-14T22:50:28.832Z,22.37
2019-04-14T22:52:58.376Z,23.60
2019-04-14T22:55:28.048Z,24.53
2019-04-14T22:57:57.948Z,23.80
2019-04-14T23:01:01.997Z,24.43
2019-04-14T23:03:48.118Z,22.87
2019-04-14T23:06:48.927Z,23.33
2019-04-14T23:09:43.339Z,24.67
2019-04-14T23:12:34.685Z,22.97
2019-04-14T23:15:23.735Z,22.63
2019-04-14T23:18:00.338Z,21.80
2019-04-14T23:21:00.956Z,22.97
2019-04-14T23:23:47.891Z,22.83
2019-04-14T23:26:19.351Z,22.53
2019-04-14T23:28:49.067Z,23.53
2019-04-14T23:31:20.399Z,23.23
2019-04-14T23:33:50.769Z,21.60
2019-04-14T23:36:20.280Z,22.67
2019-04-14T23:38:49.807Z,23.10
2019-04-14T23:41:21.623Z,23.57
2019-04-14T23:43:51.644Z,23.73
2019-04-14T23:46:21.169Z,23.30
2019-04-14T23:48:50.697Z,23.60
2019-04-14T23:51:20.302Z,23.10
2019-04-14T23:53:49.979Z,23.57
2019-04-14T23:56:19.503Z,22.53
2019-04-14T23:58:49.051Z,23.57
